createdAt,value
2023-11-30T05:15:14.936Z,1.61
2023-11-30T05:16:14.899Z,1.65
2023-11-30T05:17:14.924Z,1.80
2023-11-30T05:18:14.953Z,1.90
2023-11-30T05:19:14.865Z,1.99
2023-11-30T05:20:14.873Z,1.94
2023-11-30T05:21:14.871Z,1.76
2023-11-30T05:22:14.816Z,1.78
2023-11-30T05:23:14.797Z,1.85
2023-11-30T05:24:14.825Z,1.94
2023-11-30T05:25:14.804Z,1.85
2023-11-30T05:26:14.792Z,1.76
2023-11-30T05:27:14.782Z,1.65
2023-11-30T05:28:14.755Z,1.57
2023-11-30T05:29:14.732Z,1.57
2023-11-30T05:30:14.821Z,1.51
2023-11-30T05:31:14.722Z,1.51
2023-11-30T05:32:14.689Z,1.61
2023-11-30T05:33:14.742Z,1.65
2023-11-30T05:34:14.659Z,1.72
2023-11-30T05:35:14.679Z,1.69
2023-11-30T05:36:14.655Z,1.73
2023-11-30T05:37:14.628Z,1.73
2023-11-30T05:38:14.612Z,1.68
2023-11-30T05:39:14.634Z,1.62
2023-11-30T05:40:14.602Z,1.62
2023-11-30T05:41:14.574Z,1.58
2023-11-30T05:42:14.589Z,1.69
2023-11-30T05:43:14.563Z,1.76
2023-11-30T05:44:14.550Z,1.75
2023-11-30T05:45:14.577Z,1.73
2023-11-30T05:46:14.542Z,1.69
2023-11-30T05:47:14.493Z,1.61
2023-11-30T05:48:14.570Z,1.62
2023-11-30T05:49:14.559Z,1.76
2023-11-30T05:50:14.458Z,1.79
2023-11-30T05:51:14.527Z,1.85
2023-11-30T05:52:14.434Z,1.85
2023-11-30T05:53:14.427Z,1.87
2023-11-30T05:54:14.503Z,1.85
2023-11-30T05:55:14.393Z,1.90
2023-11-30T05:56:14.380Z,1.91
2023-11-30T05:57:14.385Z,1.83
2023-11-30T05:58:14.360Z,1.73
2023-11-30T05:59:14.340Z,1.72
2023-11-30T06:00:14.391Z,1.69
2023-11-30T06:01:14.313Z,1.73
2023-11-30T06:02:14.293Z,1.76
2023-11-30T06:03:14.374Z,1.87
2023-11-30T06:04:14.445Z,1.98
2023-11-30T06:05:14.352Z,2.13
2023-11-30T06:06:14.283Z,2.20
2023-11-30T06:07:14.245Z,2.27
2023-11-30T06:08:14.240Z,2.16
2023-11-30T06:09:14.236Z,2.04
2023-11-30T06:10:14.191Z,1.98
2023-11-30T06:11:14.180Z,1.93
2023-11-30T06:12:14.229Z,1.97
2023-11-30T06:13:14.180Z,1.99
2023-11-30T06:14:14.139Z,2.20
2023-11-30T06:15:14.181Z,3.12
2023-11-30T06:16:14.145Z,3.78
2023-11-30T06:17:14.123Z,4.12
2023-11-30T06:18:14.123Z,4.04
2023-11-30T06:19:14.090Z,4.24
2023-11-30T06:20:14.065Z,4.34
2023-11-30T06:21:14.109Z,4.40
2023-11-30T06:22:14.079Z,4.34
2023-11-30T06:23:14.039Z,4.08
2023-11-30T06:24:14.058Z,3.76
2023-11-30T06:25:13.998Z,3.65
2023-11-30T06:26:14.015Z,3.97
2023-11-30T06:27:13.995Z,4.06
2023-11-30T06:28:13.964Z,4.21
2023-11-30T06:29:13.946Z,4.04
2023-11-30T06:30:13.982Z,3.90
2023-11-30T06:31:13.967Z,3.89
2023-11-30T06:32:13.913Z,3.65
2023-11-30T06:33:13.984Z,3.47
2023-11-30T06:34:13.923Z,3.39
2023-11-30T06:35:13.876Z,3.27
2023-11-30T06:36:13.900Z,3.18
2023-11-30T06:37:13.848Z,3.03
2023-11-30T06:38:13.853Z,2.77
2023-11-30T06:39:13.847Z,2.44
2023-11-30T06:40:13.854Z,2.16
2023-11-30T06:41:13.862Z,2.01
2023-11-30T06:42:13.809Z,1.90
2023-11-30T06:43:13.767Z,1.79
2023-11-30T06:44:13.768Z,1.73
2023-11-30T06:45:13.801Z,1.72
2023-11-30T06:46:13.733Z,1.69
2023-11-30T06:47:13.718Z,1.61
2023-11-30T06:49:10.771Z,1.42
2023-11-30T06:50:10.793Z,1.32
2023-11-30T06:51:10.820Z,1.24
2023-11-30T06:52:10.780Z,1.14
2023-11-30T06:53:10.726Z,1.08
2023-11-30T06:54:10.766Z,1.01
2023-11-30T06:55:10.706Z,0.98
2023-11-30T06:56:10.662Z,0.98
2023-11-30T06:57:10.675Z,0.97
2023-11-30T06:58:10.637Z,0.96
2023-11-30T06:59:10.637Z,0.92
2023-11-30T07:00:10.639Z,0.90
2023-11-30T07:01:10.606Z,0.88
2023-11-30T07:02:10.636Z,0.88
2023-11-30T07:03:10.765Z,0.89
2023-11-30T07:04:10.714Z,0.86
2023-11-30T07:05:10.582Z,0.83
2023-11-30T07:06:10.723Z,0.89
2023-11-30T07:07:17.266Z,0.96
2023-11-30T07:08:11.525Z,0.97
2023-11-30T07:09:10.544Z,0.94
2023-11-30T07:10:10.495Z,0.88
2023-11-30T07:11:10.485Z,0.86
2023-11-30T07:12:10.948Z,0.82
2023-11-30T07:13:10.493Z,0.82
2023-11-30T07:14:10.428Z,0.83
2023-11-30T07:15:10.456Z,0.80
2023-11-30T07:16:10.426Z,0.83
2023-11-30T07:17:10.396Z,0.85
2023-11-30T07:18:10.662Z,0.89
2023-11-30T07:19:10.380Z,0.83
2023-11-30T07:20:10.351Z,0.80
2023-11-30T07:21:10.360Z,0.83
2023-11-30T07:22:10.346Z,0.88
2023-11-30T07:23:10.333Z,0.83
2023-11-30T07:24:12.365Z,0.80
2023-11-30T07:25:10.295Z,0.82
2023-11-30T07:26:10.272Z,0.83
2023-11-30T07:27:10.293Z,0.82
2023-11-30T07:28:10.250Z,0.83
2023-11-30T07:29:10.239Z,0.85
2023-11-30T07:30:10.346Z,0.79
2023-11-30T07:31:10.254Z,0.79
2023-11-30T07:32:10.211Z,0.70
2023-11-30T07:33:10.277Z,0.67
2023-11-30T07:34:10.167Z,0.72
2023-11-30T07:35:10.171Z,0.76
2023-11-30T07:36:12.390Z,0.82
2023-11-30T07:37:10.150Z,0.83
2023-11-30T07:38:10.125Z,0.82
2023-11-30T07:39:10.212Z,0.79
2023-11-30T07:40:10.108Z,0.83
2023-11-30T07:41:10.113Z,0.85
2023-11-30T07:42:10.118Z,0.78
2023-11-30T07:43:10.094Z,0.70
2023-11-30T07:44:10.058Z,0.65
2023-11-30T07:45:10.062Z,0.62
2023-11-30T07:46:10.051Z,0.62
2023-11-30T07:47:10.019Z,0.67
2023-11-30T07:48:10.104Z,0.64
2023-11-30T07:49:09.986Z,0.62
2023-11-30T07:50:09.973Z,0.62
2023-11-30T07:51:09.993Z,0.65
2023-11-30T07:52:09.943Z,0.65
2023-11-30T07:53:09.941Z,0.65
2023-11-30T07:54:09.944Z,0.57
2023-11-30T07:55:09.918Z,0.49
2023-11-30T07:56:09.887Z,0.48
2023-11-30T07:57:09.890Z,0.49
2023-11-30T07:58:09.880Z,0.53
2023-11-30T07:59:09.864Z,0.62
2023-11-30T08:00:09.926Z,0.67
2023-11-30T08:01:09.840Z,0.65
2023-11-30T08:02:09.809Z,0.58
2023-11-30T08:03:09.857Z,0.58
2023-11-30T08:04:09.913Z,0.60
2023-11-30T08:05:09.787Z,0.61
2023-11-30T08:06:09.816Z,0.57
2023-11-30T08:07:09.762Z,0.48
2023-11-30T08:08:09.740Z,0.46
2023-11-30T08:09:09.779Z,0.51
2023-11-30T08:10:09.713Z,0.57
2023-11-30T08:11:09.724Z,0.57
2023-11-30T08:12:09.728Z,0.61
2023-11-30T08:13:09.675Z,0.64
2023-11-30T08:14:09.668Z,0.68
2023-11-30T08:15:09.663Z,0.72
2023-11-30T08:16:09.661Z,0.75
2023-11-30T08:17:09.627Z,0.75
2023-11-30T08:18:09.687Z,0.79
2023-11-30T08:19:09.685Z,0.75
2023-11-30T08:20:09.593Z,0.70
2023-11-30T08:21:09.614Z,0.65
2023-11-30T08:22:10.010Z,0.67
2023-11-30T08:23:09.562Z,0.67
2023-11-30T08:24:09.615Z,0.68
2023-11-30T08:25:09.531Z,0.67
2023-11-30T08:26:09.510Z,0.65
2023-11-30T08:27:09.542Z,0.72
2023-11-30T08:28:09.493Z,0.72
2023-11-30T08:29:09.487Z,0.64
2023-11-30T08:30:09.500Z,0.67
2023-11-30T08:31:09.565Z,0.62
2023-11-30T08:32:09.495Z,0.58
2023-11-30T08:33:09.558Z,0.51
2023-11-30T08:34:09.402Z,0.60
2023-11-30T08:35:09.402Z,0.68
2023-11-30T08:36:09.426Z,0.76
2023-11-30T08:37:09.393Z,0.76
2023-11-30T08:38:09.349Z,0.82
2023-11-30T08:39:09.383Z,0.88
2023-11-30T08:40:09.337Z,0.89
2023-11-30T08:41:09.319Z,0.88
2023-11-30T08:42:09.349Z,0.85
2023-11-30T08:43:09.308Z,0.85
2023-11-30T08:44:09.345Z,0.90
2023-11-30T08:45:09.317Z,0.94
2023-11-30T08:46:09.415Z,0.97
2023-11-30T08:47:09.270Z,1.03
2023-11-30T08:48:09.366Z,1.08
2023-11-30T08:49:09.209Z,1.16
2023-11-30T08:50:09.222Z,1.21
2023-11-30T08:51:09.240Z,1.28
2023-11-30T08:52:09.185Z,1.33
2023-11-30T08:53:09.165Z,1.34
2023-11-30T08:54:09.161Z,1.32
2023-11-30T08:55:09.137Z,1.34
2023-11-30T08:56:09.133Z,1.33
2023-11-30T08:57:09.197Z,1.33
2023-11-30T08:58:09.108Z,1.29
2023-11-30T08:59:09.079Z,1.28
2023-11-30T09:00:09.180Z,1.28
2023-11-30T09:01:09.108Z,1.28
2023-11-30T09:02:09.142Z,1.28
2023-11-30T09:03:09.059Z,1.26
2023-11-30T09:04:09.076Z,1.25
2023-11-30T09:05:09.049Z,1.24
2023-11-30T09:06:09.027Z,1.24
2023-11-30T09:07:08.987Z,1.26
2023-11-30T09:08:08.993Z,1.28
2023-11-30T09:09:08.968Z,1.33
2023-11-30T09:10:08.952Z,1.40
2023-11-30T09:11:08.926Z,1.47
2023-11-30T09:12:09.002Z,1.57
2023-11-30T09:13:08.937Z,1.65
2023-11-30T09:14:08.906Z,1.72
2023-11-30T09:15:08.926Z,1.68
2023-11-30T09:16:08.906Z,1.60
2023-11-30T09:17:08.851Z,1.60
2023-11-30T09:18:09.020Z,1.60
2023-11-30T09:19:08.829Z,1.57
2023-11-30T09:20:08.824Z,1.54
2023-11-30T09:21:08.812Z,1.54
2023-11-30T09:22:08.818Z,1.58
2023-11-30T09:23:08.788Z,1.50
2023-11-30T09:24:08.813Z,1.37
2023-11-30T09:25:08.787Z,1.32
2023-11-30T09:26:08.749Z,1.37
2023-11-30T09:27:08.769Z,1.46
2023-11-30T09:28:08.742Z,1.58
2023-11-30T09:29:08.707Z,1.64
2023-11-30T09:30:08.818Z,1.65
2023-11-30T09:31:08.674Z,1.61
2023-11-30T09:32:08.667Z,1.58
2023-11-30T09:33:08.711Z,1.57
2023-11-30T09:34:08.630Z,1.60
2023-11-30T09:35:08.614Z,1.60
2023-11-30T09:36:08.648Z,1.47
2023-11-30T09:37:08.600Z,1.47
2023-11-30T09:38:08.604Z,1.58
2023-11-30T09:39:08.627Z,1.64
2023-11-30T09:40:08.563Z,1.73
2023-11-30T09:41:08.536Z,1.78
2023-11-30T09:42:08.576Z,1.71
2023-11-30T09:43:08.520Z,1.57
2023-11-30T09:44:08.508Z,1.55
2023-11-30T09:45:08.569Z,1.54
2023-11-30T09:46:08.513Z,1.57
2023-11-30T09:47:08.477Z,1.61
2023-11-30T09:48:08.618Z,1.62
2023-11-30T09:49:10.183Z,1.69
2023-11-30T09:50:08.437Z,1.82
2023-11-30T09:51:08.418Z,1.87
2023-11-30T09:52:08.425Z,1.83
2023-11-30T09:53:08.385Z,1.91
2023-11-30T09:54:08.408Z,1.97
2023-11-30T09:55:08.362Z,2.01
2023-11-30T09:56:08.349Z,1.97
2023-11-30T09:57:08.375Z,1.89
2023-11-30T09:58:08.314Z,1.82
2023-11-30T09:59:08.337Z,1.87
2023-11-30T10:00:08.316Z,1.83
2023-11-30T10:01:08.344Z,1.73
2023-11-30T10:02:09.154Z,1.64
2023-11-30T10:03:08.315Z,1.64
2023-11-30T10:04:08.273Z,1.61
2023-11-30T10:05:08.256Z,1.52
2023-11-30T10:06:08.256Z,1.43
2023-11-30T10:07:08.194Z,1.39
2023-11-30T10:08:08.187Z,1.46
2023-11-30T10:09:08.185Z,1.44
2023-11-30T10:10:08.166Z,1.44
2023-11-30T10:11:08.160Z,1.37
2023-11-30T10:12:08.190Z,1.39
2023-11-30T10:13:08.129Z,1.33
2023-11-30T10:14:08.131Z,1.34
2023-11-30T10:15:08.147Z,1.44
2023-11-30T10:16:08.251Z,1.44
2023-11-30T10:17:08.152Z,1.54
2023-11-30T10:18:08.233Z,1.61
2023-11-30T10:19:08.741Z,1.75
2023-11-30T10:20:08.065Z,1.90
2023-11-30T10:21:08.042Z,2.02
2023-11-30T10:22:08.018Z,2.12
2023-11-30T10:23:07.988Z,2.17
2023-11-30T10:24:08.017Z,2.23
2023-11-30T10:25:07.976Z,2.22
2023-11-30T10:26:07.945Z,2.23
2023-11-30T10:27:07.955Z,2.20
2023-11-30T10:28:07.923Z,2.04
2023-11-30T10:29:08.155Z,1.89
2023-11-30T10:30:08.066Z,1.76
2023-11-30T10:31:07.894Z,1.69
2023-11-30T10:32:07.867Z,1.61
2023-11-30T10:33:07.956Z,1.68
2023-11-30T10:34:08.007Z,1.76
2023-11-30T10:35:07.931Z,1.87
2023-11-30T10:36:07.839Z,1.90
2023-11-30T10:37:07.842Z,1.94
2023-11-30T10:38:07.810Z,2.01
2023-11-30T10:39:07.905Z,2.06
2023-11-30T10:40:07.760Z,2.06
2023-11-30T10:41:07.751Z,2.02
2023-11-30T10:42:07.761Z,1.97
2023-11-30T10:43:07.742Z,1.90
2023-11-30T10:44:07.719Z,1.80
2023-11-30T10:45:07.935Z,1.85
2023-11-30T10:46:07.682Z,1.98
2023-11-30T10:47:07.704Z,2.12
2023-11-30T10:48:07.789Z,2.31
2023-11-30T10:49:07.646Z,2.45
2023-11-30T10:50:07.674Z,2.53
2023-11-30T10:51:07.671Z,2.67
2023-11-30T10:52:07.608Z,2.71
2023-11-30T10:53:07.607Z,2.79
2023-11-30T10:54:07.609Z,2.98
2023-11-30T10:55:07.596Z,3.03
2023-11-30T10:56:07.578Z,2.97
2023-11-30T10:57:07.603Z,2.92
2023-11-30T10:58:07.575Z,2.88
2023-11-30T10:59:07.519Z,2.64
2023-11-30T11:00:07.520Z,2.48
2023-11-30T11:01:07.582Z,2.37
2023-11-30T11:02:07.535Z,2.38
2023-11-30T11:03:07.577Z,2.51
2023-11-30T11:04:07.632Z,2.51
2023-11-30T11:05:07.456Z,2.41
2023-11-30T11:06:07.429Z,2.27
2023-11-30T11:07:07.446Z,2.17
2023-11-30T11:08:07.403Z,2.04
2023-11-30T11:09:07.471Z,2.01
2023-11-30T11:10:07.429Z,2.08
2023-11-30T11:11:07.384Z,2.12
2023-11-30T11:12:07.434Z,2.13
2023-11-30T11:13:07.387Z,2.17
2023-11-30T11:14:07.330Z,2.22
2023-11-30T11:15:07.346Z,2.19
2023-11-30T11:16:07.380Z,2.22
2023-11-30T11:17:07.318Z,2.30
2023-11-30T11:18:07.390Z,2.34
2023-11-30T11:19:07.272Z,2.33
2023-11-30T11:20:07.261Z,2.15
2023-11-30T11:21:07.278Z,1.97
2023-11-30T11:22:07.221Z,1.93
2023-11-30T11:23:07.239Z,1.91
2023-11-30T11:24:07.256Z,1.94
2023-11-30T11:25:07.203Z,1.99
2023-11-30T11:26:07.198Z,1.99
2023-11-30T11:27:07.189Z,2.02
2023-11-30T11:28:07.171Z,2.06
2023-11-30T11:29:07.149Z,2.06
2023-11-30T11:30:07.180Z,2.13
2023-11-30T11:31:07.151Z,2.19
2023-11-30T11:32:07.097Z,2.19
2023-11-30T11:33:07.214Z,2.23
2023-11-30T11:34:07.093Z,2.30
2023-11-30T11:35:07.085Z,2.45
2023-11-30T11:36:07.129Z,2.52
2023-11-30T11:37:07.035Z,2.55
2023-11-30T11:38:07.038Z,2.71
2023-11-30T11:39:07.053Z,2.91
2023-11-30T11:40:07.027Z,3.03
2023-11-30T11:41:06.990Z,3.10
2023-11-30T11:42:06.978Z,3.20
2023-11-30T11:43:06.984Z,3.21
2023-11-30T11:44:06.952Z,3.15
2023-11-30T11:45:07.054Z,3.20
2023-11-30T11:46:07.099Z,3.27
2023-11-30T11:47:06.910Z,3.36
2023-11-30T11:48:07.048Z,3.46
2023-11-30T11:49:06.909Z,3.52
2023-11-30T11:50:06.874Z,3.65
2023-11-30T11:51:06.962Z,3.79
2023-11-30T11:52:06.858Z,3.98
2023-11-30T11:53:06.860Z,4.15
2023-11-30T11:54:06.886Z,4.39
2023-11-30T11:55:06.818Z,4.83
2023-11-30T11:56:06.811Z,5.27
2023-11-30T11:57:06.783Z,6.16
2023-11-30T11:58:06.773Z,6.46
2023-11-30T11:59:06.767Z,6.29
2023-11-30T12:00:06.787Z,6.26
2023-11-30T12:01:06.788Z,5.50
2023-11-30T12:02:06.773Z,5.10
2023-11-30T12:03:06.765Z,5.14
2023-11-30T12:04:06.743Z,6.03
2023-11-30T12:05:06.697Z,6.56
2023-11-30T12:06:06.663Z,6.30
2023-11-30T12:07:06.684Z,5.68
2023-11-30T12:08:06.649Z,5.16
2023-11-30T12:09:06.622Z,4.98
2023-11-30T12:10:06.601Z,4.91
2023-11-30T12:11:06.598Z,4.62
2023-11-30T12:12:06.588Z,4.55
2023-11-30T12:13:06.563Z,4.57
2023-11-30T12:14:06.566Z,4.57
2023-11-30T12:15:06.541Z,4.44
2023-11-30T12:16:06.595Z,4.22
2023-11-30T12:17:06.528Z,4.00
2023-11-30T12:18:06.580Z,3.89
2023-11-30T12:19:06.493Z,3.65
2023-11-30T12:20:06.479Z,3.39
2023-11-30T12:21:06.484Z,3.20
2023-11-30T12:22:06.458Z,3.00
2023-11-30T12:23:06.435Z,2.97
2023-11-30T12:24:06.410Z,3.03
2023-11-30T12:25:06.436Z,3.07
2023-11-30T12:26:06.405Z,3.21
2023-11-30T12:27:06.400Z,3.23
2023-11-30T12:28:06.369Z,3.27
2023-11-30T12:29:06.353Z,3.20
2023-11-30T12:30:06.348Z,3.10
2023-11-30T12:31:06.343Z,3.06
2023-11-30T12:32:06.444Z,2.92
2023-11-30T12:33:06.539Z,2.77
2023-11-30T12:34:06.318Z,2.69
2023-11-30T12:35:06.328Z,2.58
2023-11-30T12:36:06.306Z,2.49
2023-11-30T12:37:06.247Z,2.45
2023-11-30T12:38:06.228Z,2.46
2023-11-30T12:39:06.259Z,2.49
2023-11-30T12:40:06.216Z,2.55
2023-11-30T12:41:06.195Z,2.73
2023-11-30T12:42:06.731Z,2.85
2023-11-30T12:43:06.172Z,2.92
2023-11-30T12:44:06.528Z,2.88
2023-11-30T12:45:06.218Z,2.92
2023-11-30T12:46:06.163Z,2.91
2023-11-30T12:47:06.119Z,2.88
2023-11-30T12:48:06.133Z,2.94
2023-11-30T12:49:06.122Z,3.02
2023-11-30T12:50:06.184Z,3.07
2023-11-30T12:51:06.070Z,3.12
2023-11-30T12:52:06.061Z,3.15
2023-11-30T12:53:06.036Z,3.24
2023-11-30T12:54:06.037Z,3.39
2023-11-30T12:55:06.492Z,3.49
2023-11-30T12:56:05.991Z,3.52
2023-11-30T12:57:05.989Z,3.58
2023-11-30T12:58:05.977Z,3.65
2023-11-30T12:59:05.987Z,3.71
2023-11-30T13:00:05.955Z,3.76
2023-11-30T13:01:05.939Z,3.62
2023-11-30T13:02:06.007Z,3.54
2023-11-30T13:03:05.922Z,3.49
2023-11-30T13:04:06.014Z,3.39
2023-11-30T13:05:05.891Z,3.28
2023-11-30T13:06:05.867Z,3.25
2023-11-30T13:07:05.865Z,3.24
2023-11-30T13:08:05.852Z,3.23
2023-11-30T13:09:05.839Z,3.18
2023-11-30T13:10:05.841Z,3.20
2023-11-30T13:11:05.802Z,3.25
2023-11-30T13:12:05.811Z,3.31
2023-11-30T13:13:05.802Z,3.33
2023-11-30T13:14:05.760Z,3.34
2023-11-30T13:15:05.750Z,3.33
2023-11-30T13:16:05.740Z,3.31
2023-11-30T13:17:05.750Z,3.39
2023-11-30T13:18:05.770Z,3.40
2023-11-30T13:19:05.912Z,3.44
2023-11-30T13:20:05.699Z,3.47
2023-11-30T13:21:05.675Z,3.60
2023-11-30T13:22:05.679Z,3.68
2023-11-30T13:23:05.666Z,3.76
2023-11-30T13:24:05.629Z,3.89
2023-11-30T13:25:05.632Z,3.90
2023-11-30T13:26:05.599Z,3.90
2023-11-30T13:27:05.628Z,3.94
2023-11-30T13:28:05.597Z,3.90
2023-11-30T13:29:05.576Z,3.89
2023-11-30T13:30:05.554Z,3.88
2023-11-30T13:31:05.633Z,3.89
2023-11-30T13:32:05.541Z,3.88
2023-11-30T13:33:05.677Z,3.82
2023-11-30T13:34:05.516Z,3.76
2023-11-30T13:35:05.489Z,3.76
2023-11-30T13:36:05.482Z,3.71
2023-11-30T13:37:05.476Z,3.68
2023-11-30T13:38:05.445Z,3.80
2023-11-30T13:39:05.443Z,3.89
2023-11-30T13:40:05.424Z,4.01
2023-11-30T13:41:05.432Z,4.08
2023-11-30T13:42:05.396Z,4.16
2023-11-30T13:43:05.398Z,4.14
2023-11-30T13:44:05.407Z,4.07
2023-11-30T13:45:05.364Z,4.06
2023-11-30T13:46:05.362Z,4.01
2023-11-30T13:47:05.333Z,3.96
2023-11-30T13:48:05.329Z,3.88
2023-11-30T13:49:05.302Z,3.80
2023-11-30T13:50:12.468Z,3.80
2023-11-30T13:51:06.299Z,3.83
2023-11-30T13:52:05.259Z,3.89
2023-11-30T13:53:05.275Z,3.92
2023-11-30T13:54:05.236Z,4.00
2023-11-30T13:55:05.241Z,4.00
2023-11-30T13:56:05.225Z,3.97
2023-11-30T13:57:05.205Z,3.98
2023-11-30T13:58:05.205Z,3.96
2023-11-30T13:59:05.174Z,3.90
2023-11-30T14:00:05.166Z,3.86
2023-11-30T14:01:05.267Z,3.75
2023-11-30T14:02:05.166Z,3.68
2023-11-30T14:03:05.152Z,3.64
2023-11-30T14:04:05.243Z,3.60
2023-11-30T14:05:05.100Z,3.53
2023-11-30T14:06:05.185Z,3.47
2023-11-30T14:07:05.084Z,3.43
2023-11-30T14:08:05.055Z,3.33
2023-11-30T14:09:05.249Z,3.30
2023-11-30T14:10:05.117Z,3.25
2023-11-30T14:11:05.012Z,3.24
2023-11-30T14:12:04.999Z,3.21
2023-11-30T14:13:05.003Z,3.20
2023-11-30T14:14:04.993Z,3.18
2023-11-30T14:15:05.020Z,3.18
2023-11-30T14:16:04.988Z,3.12
2023-11-30T14:17:05.031Z,3.10
2023-11-30T14:18:04.960Z,3.05
2023-11-30T14:19:04.945Z,3.00
2023-11-30T14:20:04.897Z,2.92
2023-11-30T14:21:04.921Z,2.87
2023-11-30T14:22:04.888Z,2.85
2023-11-30T14:23:04.922Z,2.85
2023-11-30T14:24:04.841Z,2.87
2023-11-30T14:25:04.835Z,2.87
2023-11-30T14:26:04.836Z,2.91
2023-11-30T14:27:04.861Z,2.91
2023-11-30T14:28:10.929Z,2.94
2023-11-30T14:29:05.782Z,2.94
2023-11-30T14:30:04.845Z,2.92
2023-11-30T14:31:04.961Z,2.95
2023-11-30T14:32:04.856Z,2.95
2023-11-30T14:33:04.794Z,2.95
2023-11-30T14:34:05.011Z,2.95
2023-11-30T14:35:04.703Z,2.89
2023-11-30T14:36:04.683Z,2.82
2023-11-30T14:37:04.702Z,2.76
2023-11-30T14:38:04.655Z,2.77
2023-11-30T14:39:04.660Z,2.81
2023-11-30T14:40:04.631Z,2.84
2023-11-30T14:41:04.630Z,2.85
2023-11-30T14:42:04.624Z,2.82
2023-11-30T14:43:04.608Z,2.79
2023-11-30T14:44:04.604Z,2.81
2023-11-30T14:45:04.580Z,2.76
2023-11-30T14:46:04.658Z,2.74
2023-11-30T14:47:04.673Z,2.79
2023-11-30T14:48:04.571Z,2.84
2023-11-30T14:49:04.579Z,2.87
2023-11-30T14:50:04.505Z,2.89
2023-11-30T14:51:04.514Z,2.89
2023-11-30T14:52:04.475Z,2.89
2023-11-30T14:53:04.471Z,2.92
2023-11-30T14:54:04.447Z,2.94
2023-11-30T14:55:04.441Z,2.95
2023-11-30T14:56:04.444Z,2.98
2023-11-30T14:57:06.135Z,2.97
2023-11-30T14:58:04.398Z,2.97
2023-11-30T14:59:04.388Z,2.94
2023-11-30T15:00:04.383Z,2.92
2023-11-30T15:01:04.469Z,2.94
2023-11-30T15:02:04.437Z,2.91
2023-11-30T15:03:04.352Z,2.88
2023-11-30T15:04:04.377Z,2.81
2023-11-30T15:05:04.333Z,2.79
2023-11-30T15:06:04.301Z,2.76
2023-11-30T15:07:04.312Z,2.71
2023-11-30T15:08:04.315Z,2.66
2023-11-30T15:09:04.269Z,2.64
2023-11-30T15:10:04.270Z,2.64
2023-11-30T15:11:04.275Z,2.64
2023-11-30T15:12:04.274Z,2.67
2023-11-30T15:13:04.220Z,2.73
2023-11-30T15:14:04.482Z,2.71
2023-11-30T15:15:04.226Z,2.71
2023-11-30T15:16:04.260Z,2.69
2023-11-30T15:17:04.164Z,2.64
2023-11-30T15:18:04.182Z,2.63
2023-11-30T15:19:04.194Z,2.64
2023-11-30T15:20:04.125Z,2.66
2023-11-30T15:21:04.109Z,2.66
2023-11-30T15:22:04.091Z,2.70
2023-11-30T15:23:04.077Z,2.67
2023-11-30T15:24:04.097Z,2.64
2023-11-30T15:25:04.078Z,2.64
2023-11-30T15:26:04.039Z,2.67
2023-11-30T15:27:04.036Z,2.67
2023-11-30T15:28:04.020Z,2.64
2023-11-30T15:29:04.019Z,2.63
2023-11-30T15:30:03.983Z,2.63
2023-11-30T15:31:04.003Z,2.63
2023-11-30T15:32:03.955Z,2.55
2023-11-30T15:33:03.981Z,2.52
2023-11-30T15:34:04.089Z,2.46
2023-11-30T15:35:03.990Z,2.38
2023-11-30T15:36:03.906Z,2.37
2023-11-30T15:37:03.897Z,2.38
2023-11-30T15:38:03.894Z,2.37
2023-11-30T15:39:03.872Z,2.38
2023-11-30T15:40:03.860Z,2.35
2023-11-30T15:41:03.840Z,2.34
2023-11-30T15:42:03.839Z,2.34
2023-11-30T15:43:03.889Z,2.35
2023-11-30T15:44:03.801Z,2.37
2023-11-30T15:45:03.811Z,2.34
2023-11-30T15:46:03.870Z,2.33
2023-11-30T15:47:03.935Z,2.31
2023-11-30T15:48:03.822Z,2.31
2023-11-30T15:49:03.759Z,2.30
2023-11-30T15:50:03.722Z,2.28
2023-11-30T15:51:03.713Z,2.26
2023-11-30T15:52:03.716Z,2.26
2023-11-30T15:53:03.693Z,2.26
2023-11-30T15:54:03.668Z,2.28
2023-11-30T15:55:10.722Z,2.28
2023-11-30T15:56:03.664Z,2.26
2023-11-30T15:57:03.709Z,2.28
2023-11-30T15:58:03.624Z,2.30
2023-11-30T15:59:03.599Z,2.30
2023-11-30T16:00:03.671Z,2.33
2023-11-30T16:01:03.616Z,2.33
2023-11-30T16:02:03.637Z,2.33
2023-11-30T16:03:03.561Z,2.31
2023-11-30T16:04:03.655Z,2.27
2023-11-30T16:05:03.529Z,2.19
2023-11-30T16:06:03.527Z,2.16
2023-11-30T16:07:03.526Z,2.16
2023-11-30T16:08:03.496Z,2.17
2023-11-30T16:09:03.470Z,2.16
2023-11-30T16:10:03.472Z,2.16
2023-11-30T16:11:03.452Z,2.19
2023-11-30T16:12:03.441Z,2.19
2023-11-30T16:13:03.420Z,2.16
2023-11-30T16:14:03.408Z,2.16
2023-11-30T16:15:03.436Z,2.16
2023-11-30T16:16:03.418Z,2.13
2023-11-30T16:17:03.360Z,2.12
2023-11-30T16:18:03.415Z,2.08
2023-11-30T16:19:03.345Z,2.02
2023-11-30T16:20:03.355Z,1.97
2023-11-30T16:21:03.310Z,1.91
2023-11-30T16:22:03.370Z,1.91
2023-11-30T16:23:03.287Z,1.89
2023-11-30T16:24:03.408Z,1.87
2023-11-30T16:25:03.480Z,1.85
2023-11-30T16:26:03.253Z,1.87
2023-11-30T16:27:03.246Z,1.87
2023-11-30T16:28:03.296Z,1.87
2023-11-30T16:29:03.225Z,1.87
2023-11-30T16:30:03.199Z,1.89
2023-11-30T16:31:03.229Z,1.87
2023-11-30T16:32:03.218Z,1.83
2023-11-30T16:33:03.192Z,1.82
2023-11-30T16:34:03.196Z,1.80
2023-11-30T16:35:03.133Z,1.79
2023-11-30T16:36:03.159Z,1.78
2023-11-30T16:37:03.131Z,1.76
2023-11-30T16:38:03.126Z,1.73
2023-11-30T16:39:03.102Z,1.71
2023-11-30T16:40:03.146Z,1.71
2023-11-30T16:41:03.064Z,1.71
2023-11-30T16:42:03.041Z,1.64
2023-11-30T16:43:03.038Z,1.61
2023-11-30T16:44:03.023Z,1.58
2023-11-30T16:45:03.079Z,1.54
2023-11-30T16:46:03.123Z,1.50
2023-11-30T16:47:03.011Z,1.46
2023-11-30T16:48:03.019Z,1.46
2023-11-30T16:49:02.969Z,1.42
2023-11-30T16:50:02.955Z,1.42
2023-11-30T16:51:02.929Z,1.40
2023-11-30T16:52:02.961Z,1.39
2023-11-30T16:53:02.926Z,1.37
2023-11-30T16:54:02.899Z,1.37
2023-11-30T16:55:03.124Z,1.34
2023-11-30T16:56:02.873Z,1.36
2023-11-30T16:57:02.875Z,1.34
2023-11-30T16:58:02.858Z,1.36
2023-11-30T16:59:02.834Z,1.34
2023-11-30T17:00:02.817Z,1.36
2023-11-30T17:01:02.797Z,1.39
2023-11-30T17:02:02.920Z,1.42
2023-11-30T17:03:02.838Z,1.43
2023-11-30T17:04:02.854Z,1.43
2023-11-30T17:05:02.761Z,1.47
2023-11-30T17:06:02.755Z,1.51
2023-11-30T17:07:02.795Z,1.52
2023-11-30T17:08:02.714Z,1.54
2023-11-30T17:09:02.712Z,1.50
2023-11-30T17:10:02.725Z,1.50
2023-11-30T17:11:02.689Z,1.50
2023-11-30T17:12:02.669Z,1.52
2023-11-30T17:13:02.712Z,1.51
2023-11-30T17:14:02.632Z,1.57
2023-11-30T17:15:02.628Z,1.61
2023-11-30T17:16:04.122Z,1.62
2023-11-30T17:17:05.351Z,1.60
2023-11-30T17:18:02.626Z,1.58
2023-11-30T17:19:02.578Z,1.57
2023-11-30T17:20:02.583Z,1.57
2023-11-30T17:21:02.549Z,1.58
2023-11-30T17:22:02.551Z,1.62
2023-11-30T17:23:02.522Z,1.62
2023-11-30T17:24:02.502Z,1.62
2023-11-30T17:25:02.605Z,1.62
2023-11-30T17:26:02.481Z,1.65
2023-11-30T17:27:02.468Z,1.68
2023-11-30T17:28:02.516Z,1.71
2023-11-30T17:29:02.440Z,1.71
2023-11-30T17:30:02.445Z,1.73
2023-11-30T17:31:02.438Z,1.76
2023-11-30T17:32:02.401Z,1.76
2023-11-30T17:33:02.610Z,1.79
2023-11-30T17:34:02.606Z,1.80
2023-11-30T17:35:02.591Z,1.82
2023-11-30T17:36:02.350Z,1.82
2023-11-30T17:37:02.328Z,1.83
2023-11-30T17:38:02.316Z,1.89
2023-11-30T17:39:02.320Z,1.91
2023-11-30T17:40:02.295Z,1.93
2023-11-30T17:41:02.348Z,1.97
2023-11-30T17:42:02.274Z,1.93
2023-11-30T17:43:02.260Z,1.91
2023-11-30T17:44:02.249Z,1.89
2023-11-30T17:45:02.263Z,1.90
2023-11-30T17:46:02.218Z,1.90
2023-11-30T17:47:02.204Z,1.89
2023-11-30T17:48:02.215Z,1.87
2023-11-30T17:49:02.191Z,1.82
2023-11-30T17:50:04.424Z,1.83
2023-11-30T17:51:02.150Z,1.83
2023-11-30T17:52:02.180Z,1.87
2023-11-30T17:53:02.135Z,1.90
2023-11-30T17:54:02.137Z,1.85
2023-11-30T17:55:02.144Z,1.85
2023-11-30T17:56:02.132Z,1.85
2023-11-30T17:57:02.081Z,1.79
2023-11-30T17:58:02.066Z,1.78
2023-11-30T17:59:02.058Z,1.78
2023-11-30T18:00:02.035Z,1.75
2023-11-30T18:01:02.055Z,1.73
2023-11-30T18:02:02.058Z,1.72
2023-11-30T18:03:02.036Z,1.73
2023-11-30T18:04:02.124Z,1.75
2023-11-30T18:05:01.993Z,1.75
2023-11-30T18:06:01.976Z,1.73
2023-11-30T18:07:01.956Z,1.75
2023-11-30T18:08:01.959Z,1.75
2023-11-30T18:09:01.926Z,1.75
2023-11-30T18:10:01.990Z,1.80
2023-11-30T18:11:01.895Z,1.78
2023-11-30T18:12:01.898Z,1.76
2023-11-30T18:13:01.930Z,1.72
2023-11-30T18:14:01.948Z,1.71
2023-11-30T18:15:01.909Z,1.71
2023-11-30T18:16:04.006Z,1.69
2023-11-30T18:17:01.910Z,1.69
2023-11-30T18:18:01.821Z,1.69
2023-11-30T18:19:01.891Z,1.68
2023-11-30T18:20:01.812Z,1.68
2023-11-30T18:21:01.791Z,1.72
2023-11-30T18:22:01.847Z,1.73
2023-11-30T18:23:01.754Z,1.75
2023-11-30T18:24:01.736Z,1.76
2023-11-30T18:25:01.853Z,1.76
2023-11-30T18:26:01.715Z,1.78
2023-11-30T18:27:01.696Z,1.80
2023-11-30T18:28:01.694Z,1.79
2023-11-30T18:29:01.668Z,1.80
2023-11-30T18:30:01.674Z,1.80
2023-11-30T18:31:12.022Z,1.85
2023-11-30T18:32:02.644Z,1.85
2023-11-30T18:33:01.620Z,1.82
2023-11-30T18:34:01.640Z,1.87